sensor_id;sensor_type;location;lat;lon;timestamp;temperature;humidity
4293;DHT22;2160;51.172;6.808;2024-02-23T05:02:47;8.60;99.90
4293;DHT22;2160;51.172;6.808;2024-02-23T05:05:14;8.70;99.90
4293;DHT22;2160;51.172;6.808;2024-02-23T05:07:41;8.80;99.90
4293;DHT22;2160;51.172;6.808;2024-02-23T05:10:09;8.90;99.90
4293;DHT22;2160;51.172;6.808;2024-02-23T05:12:36;8.80;99.90
4293;DHT22;2160;51.172;6.808;2024-02-23T05:15:04;8.80;99.90
4293;DHT22;2160;51.172;6.808;2024-02-23T05:17:31;8.90;99.90
4293;DHT22;2160;51.172;6.808;2024-02-23T05:19:59;8.90;99.90
4293;DHT22;2160;51.172;6.808;2024-02-23T05:22:32;9.30;99.90
4293;DHT22;2160;51.172;6.808;2024-02-23T05:24:59;9.20;99.90
4293;DHT22;2160;51.172;6.808;2024-02-23T05:27:26;9.10;99.90
4293;DHT22;2160;51.172;6.808;2024-02-23T05:29:53;9.20;99.90
4293;DHT22;2160;51.172;6.808;2024-02-23T05:32:20;8.90;99.90
4293;DHT22;2160;51.172;6.808;2024-02-23T05:34:47;8.90;99.90
4293;DHT22;2160;51.172;6.808;2024-02-23T05:37:18;9.20;99.90
4293;DHT22;2160;51.172;6.808;2024-02-23T05:39:47;9.10;99.90
4293;DHT22;2160;51.172;6.808;2024-02-23T05:42:14;9.30;99.90
4293;DHT22;2160;51.172;6.808;2024-02-23T05:44:43;9.30;99.90
4293;DHT22;2160;51.172;6.808;2024-02-23T05:47:11;9.10;99.90
4293;DHT22;2160;51.172;6.808;2024-02-23T05:49:39;9.00;99.90
4293;DHT22;2160;51.172;6.808;2024-02-23T05:52:06;9.40;99.90
4293;DHT22;2160;51.172;6.808;2024-02-23T05:54:35;9.50;99.90
4293;DHT22;2160;51.172;6.808;2024-02-23T05:57:02;9.70;99.90
4293;DHT22;2160;51.172;6.808;2024-02-23T05:59:29;9.70;99.90
4293;DHT22;2160;51.172;6.808;2024-02-23T06:01:56;9.90;99.90
4293;DHT22;2160;51.172;6.808;2024-02-23T06:04:23;9.90;99.90
4293;DHT22;2160;51.172;6.808;2024-02-23T06:06:50;9.80;99.90
4293;DHT22;2160;51.172;6.808;2024-02-23T06:09:17;9.80;99.90
4293;DHT22;2160;51.172;6.808;2024-02-23T06:11:46;9.90;99.90
4293;DHT22;2160;51.172;6.808;2024-02-23T06:14:13;10.00;99.90
4293;DHT22;2160;51.172;6.808;2024-02-23T06:16:40;9.80;99.90
4293;DHT22;2160;51.172;6.808;2024-02-23T06:19:08;9.80;99.90
4293;DHT22;2160;51.172;6.808;2024-02-23T06:21:35;10.00;99.90
4293;DHT22;2160;51.172;6.808;2024-02-23T06:24:03;9.80;99.90
4293;DHT22;2160;51.172;6.808;2024-02-23T06:26:30;9.90;99.90
4293;DHT22;2160;51.172;6.808;2024-02-23T06:28:58;9.90;99.90
4293;DHT22;2160;51.172;6.808;2024-02-23T06:31:25;9.80;99.90
4293;DHT22;2160;51.172;6.808;2024-02-23T06:33:52;9.70;99.90
4293;DHT22;2160;51.172;6.808;2024-02-23T06:36:19;9.70;99.90
4293;DHT22;2160;51.172;6.808;2024-02-23T06:38:46;9.70;99.90
4293;DHT22;2160;51.172;6.808;2024-02-23T06:41:14;9.70;99.90
4293;DHT22;2160;51.172;6.808;2024-02-23T06:43:41;9.70;99.90
4293;DHT22;2160;51.172;6.808;2024-02-23T06:46:09;9.80;99.90
4293;DHT22;2160;51.172;6.808;2024-02-23T06:48:37;10.00;99.90
4293;DHT22;2160;51.172;6.808;2024-02-23T06:51:04;9.80;99.90
4293;DHT22;2160;51.172;6.808;2024-02-23T06:53:35;9.50;99.90
4293;DHT22;2160;51.172;6.808;2024-02-23T06:56:02;9.40;99.90
4293;DHT22;2160;51.172;6.808;2024-02-23T06:58:29;9.40;99.90
4293;DHT22;2160;51.172;6.808;2024-02-23T07:00:56;9.30;99.90
4293;DHT22;2160;51.172;6.808;2024-02-23T07:03:24;9.20;99.90
4293;DHT22;2160;51.172;6.808;2024-02-23T07:05:52;9.30;99.90
4293;DHT22;2160;51.172;6.808;2024-02-23T07:08:19;9.40;99.90
4293;DHT22;2160;51.172;6.808;2024-02-23T07:10:46;9.60;99.90
4293;DHT22;2160;51.172;6.808;2024-02-23T07:13:13;9.70;99.90
4293;DHT22;2160;51.172;6.808;2024-02-23T07:15:40;9.80;99.90
4293;DHT22;2160;51.172;6.808;2024-02-23T07:18:07;9.90;99.90
4293;DHT22;2160;51.172;6.808;2024-02-23T07:20:36;9.80;99.90
4293;DHT22;2160;51.172;6.808;2024-02-23T07:23:04;10.00;99.90
4293;DHT22;2160;51.172;6.808;2024-02-23T07:25:31;10.50;99.90
4293;DHT22;2160;51.172;6.808;2024-02-23T07:27:58;10.80;99.90
4293;DHT22;2160;51.172;6.808;2024-02-23T07:30:25;11.10;99.90
4293;DHT22;2160;51.172;6.808;2024-02-23T07:32:52;11.30;99.90
4293;DHT22;2160;51.172;6.808;2024-02-23T07:35:19;11.50;99.90
4293;DHT22;2160;51.172;6.808;2024-02-23T07:37:48;11.50;99.90
4293;DHT22;2160;51.172;6.808;2024-02-23T07:40:15;11.30;99.90
4293;DHT22;2160;51.172;6.808;2024-02-23T07:42:42;11.10;99.90
4293;DHT22;2160;51.172;6.808;2024-02-23T07:45:10;11.20;99.90
4293;DHT22;2160;51.172;6.808;2024-02-23T07:47:37;11.00;99.90
4293;DHT22;2160;51.172;6.808;2024-02-23T07:50:05;11.00;99.90
4293;DHT22;2160;51.172;6.808;2024-02-23T07:52:32;11.00;99.90
4293;DHT22;2160;51.172;6.808;2024-02-23T07:55:01;10.80;99.90
4293;DHT22;2160;51.172;6.808;2024-02-23T07:57:30;10.70;99.90
4293;DHT22;2160;51.172;6.808;2024-02-23T07:59:58;10.50;99.90
4293;DHT22;2160;51.172;6.808;2024-02-23T08:02:25;10.50;99.90
4293;DHT22;2160;51.172;6.808;2024-02-23T08:04:52;10.60;99.90
4293;DHT22;2160;51.172;6.808;2024-02-23T08:07:19;10.40;99.90
4293;DHT22;2160;51.172;6.808;2024-02-23T08:09:46;10.40;99.90
4293;DHT22;2160;51.172;6.808;2024-02-23T08:12:14;10.40;99.90
4293;DHT22;2160;51.172;6.808;2024-02-23T08:14:41;10.40;99.90
4293;DHT22;2160;51.172;6.808;2024-02-23T08:17:10;10.30;99.90
4293;DHT22;2160;51.172;6.808;2024-02-23T08:19:37;10.20;99.90
4293;DHT22;2160;51.172;6.808;2024-02-23T08:22:04;10.20;99.90
4293;DHT22;2160;51.172;6.808;2024-02-23T08:24:31;10.20;99.90
4293;DHT22;2160;51.172;6.808;2024-02-23T08:26:58;10.60;99.90
4293;DHT22;2160;51.172;6.808;2024-02-23T08:29:27;10.40;99.90
4293;DHT22;2160;51.172;6.808;2024-02-23T08:31:54;10.70;99.90
4293;DHT22;2160;51.172;6.808;2024-02-23T08:34:21;10.80;99.90
4293;DHT22;2160;51.172;6.808;2024-02-23T08:36:48;10.80;99.90
4293;DHT22;2160;51.172;6.808;2024-02-23T08:39:15;10.90;99.90
4293;DHT22;2160;51.172;6.808;2024-02-23T08:41:42;10.90;99.90
4293;DHT22;2160;51.172;6.808;2024-02-23T08:44:09;11.10;99.90
4293;DHT22;2160;51.172;6.808;2024-02-23T08:46:37;11.20;99.90
4293;DHT22;2160;51.172;6.808;2024-02-23T08:49:05;11.20;99.90
4293;DHT22;2160;51.172;6.808;2024-02-23T08:51:32;11.30;99.90
4293;DHT22;2160;51.172;6.808;2024-02-23T08:53:59;11.20;99.90
4293;DHT22;2160;51.172;6.808;2024-02-23T08:56:30;11.20;99.90
4293;DHT22;2160;51.172;6.808;2024-02-23T08:58:57;11.10;99.90
4293;DHT22;2160;51.172;6.808;2024-02-23T09:01:24;11.10;99.90
4293;DHT22;2160;51.172;6.808;2024-02-23T09:03:52;11.00;99.90
4293;DHT22;2160;51.172;6.808;2024-02-23T09:06:19;11.10;99.90
4293;DHT22;2160;51.172;6.808;2024-02-23T09:08:46;10.70;99.90
4293;DHT22;2160;51.172;6.808;2024-02-23T09:11:14;10.30;99.90
4293;DHT22;2160;51.172;6.808;2024-02-23T09:13:41;10.00;99.90
4293;DHT22;2160;51.172;6.808;2024-02-23T09:16:08;9.90;99.90
4293;DHT22;2160;51.172;6.808;2024-02-23T09:18:35;10.00;99.90
4293;DHT22;2160;51.172;6.808;2024-02-23T09:21:04;9.90;99.90
4293;DHT22;2160;51.172;6.808;2024-02-23T09:23:31;10.10;99.90
4293;DHT22;2160;51.172;6.808;2024-02-23T09:25:59;10.40;99.90
4293;DHT22;2160;51.172;6.808;2024-02-23T09:28:26;10.70;99.90
4293;DHT22;2160;51.172;6.808;2024-02-23T09:30:53;10.80;99.90
4293;DHT22;2160;51.172;6.808;2024-02-23T09:33:20;11.00;99.90
4293;DHT22;2160;51.172;6.808;2024-02-23T09:35:47;11.20;99.90
4293;DHT22;2160;51.172;6.808;2024-02-23T09:38:15;11.20;99.90
4293;DHT22;2160;51.172;6.808;2024-02-23T09:40:42;11.20;99.90
4293;DHT22;2160;51.172;6.808;2024-02-23T09:43:11;11.60;99.90
4293;DHT22;2160;51.172;6.808;2024-02-23T09:45:39;11.30;99.90
4293;DHT22;2160;51.172;6.808;2024-02-23T09:48:07;11.50;99.90
4293;DHT22;2160;51.172;6.808;2024-02-23T09:50:35;11.30;99.90
4293;DHT22;2160;51.172;6.808;2024-02-23T09:53:04;11.40;99.90
4293;DHT22;2160;51.172;6.808;2024-02-23T09:55:36;11.30;99.90
4293;DHT22;2160;51.172;6.808;2024-02-23T09:58:04;11.30;99.90
4293;DHT22;2160;51.172;6.808;2024-02-23T10:00:31;11.10;99.90
4293;DHT22;2160;51.172;6.808;2024-02-23T10:03:00;11.20;99.90
4293;DHT22;2160;51.172;6.808;2024-02-23T10:05:30;11.40;99.90
4293;DHT22;2160;51.172;6.808;2024-02-23T10:07:57;11.40;99.90
4293;DHT22;2160;51.172;6.808;2024-02-23T10:10:29;11.80;99.90
4293;DHT22;2160;51.172;6.808;2024-02-23T10:12:59;11.90;99.90
4293;DHT22;2160;51.172;6.808;2024-02-23T10:15:28;11.80;99.90
4293;DHT22;2160;51.172;6.808;2024-02-23T10:17:55;11.20;99.90
4293;DHT22;2160;51.172;6.808;2024-02-23T10:20:22;11.40;99.90
4293;DHT22;2160;51.172;6.808;2024-02-23T10:22:49;11.40;99.90
4293;DHT22;2160;51.172;6.808;2024-02-23T10:25:19;11.60;99.90
4293;DHT22;2160;51.172;6.808;2024-02-23T10:27:46;11.60;99.90
4293;DHT22;2160;51.172;6.808;2024-02-23T10:30:15;11.80;99.90
4293;DHT22;2160;51.172;6.808;2024-02-23T10:32:42;11.80;99.90
4293;DHT22;2160;51.172;6.808;2024-02-23T10:35:13;11.90;99.90
4293;DHT22;2160;51.172;6.808;2024-02-23T10:37:42;11.90;99.90
4293;DHT22;2160;51.172;6.808;2024-02-23T10:40:11;12.00;99.90
4293;DHT22;2160;51.172;6.808;2024-02-23T10:42:39;11.60;99.90
4293;DHT22;2160;51.172;6.808;2024-02-23T10:45:08;11.60;99.90
4293;DHT22;2160;51.172;6.808;2024-02-23T10:47:37;11.90;99.90
4293;DHT22;2160;51.172;6.808;2024-02-23T10:50:04;11.50;99.90
4293;DHT22;2160;51.172;6.808;2024-02-23T10:52:33;11.50;99.90
4293;DHT22;2160;51.172;6.808;2024-02-23T10:55:01;11.60;99.90
4293;DHT22;2160;51.172;6.808;2024-02-23T10:57:30;11.60;99.90
4293;DHT22;2160;51.172;6.808;2024-02-23T10:59:58;11.50;99.90
4293;DHT22;2160;51.172;6.808;2024-02-23T11:02:28;11.70;99.90
4293;DHT22;2160;51.172;6.808;2024-02-23T11:04:58;11.50;99.90
4293;DHT22;2160;51.172;6.808;2024-02-23T11:07:26;11.50;99.90
4293;DHT22;2160;51.172;6.808;2024-02-23T11:09:53;11.40;99.90
4293;DHT22;2160;51.172;6.808;2024-02-23T11:12:24;11.60;99.90
4293;DHT22;2160;51.172;6.808;2024-02-23T11:14:56;11.60;99.90
4293;DHT22;2160;51.172;6.808;2024-02-23T11:17:23;11.50;99.90
4293;DHT22;2160;51.172;6.808;2024-02-23T11:19:54;11.50;99.90
4293;DHT22;2160;51.172;6.808;2024-02-23T11:22:26;11.20;99.90
4293;DHT22;2160;51.172;6.808;2024-02-23T11:25:00;11.20;99.90
4293;DHT22;2160;51.172;6.808;2024-02-23T11:27:31;11.40;99.90
4293;DHT22;2160;51.172;6.808;2024-02-23T11:30:03;11.80;99.90
4293;DHT22;2160;51.172;6.808;2024-02-23T11:32:38;11.80;99.90
4293;DHT22;2160;51.172;6.808;2024-02-23T11:35:07;11.80;99.90
4293;DHT22;2160;51.172;6.808;2024-02-23T11:37:46;11.90;99.90
4293;DHT22;2160;51.172;6.808;2024-02-23T11:40:13;12.40;99.90
4293;DHT22;2160;51.172;6.808;2024-02-23T11:42:41;12.20;99.90
4293;DHT22;2160;51.172;6.808;2024-02-23T11:45:09;11.80;99.90
4293;DHT22;2160;51.172;6.808;2024-02-23T11:47:37;11.90;99.90
4293;DHT22;2160;51.172;6.808;2024-02-23T11:50:04;11.90;99.90
4293;DHT22;2160;51.172;6.808;2024-02-23T11:52:33;12.00;99.90
4293;DHT22;2160;51.172;6.808;2024-02-23T11:55:01;11.90;99.90
4293;DHT22;2160;51.172;6.808;2024-02-23T11:57:31;12.10;99.90
4293;DHT22;2160;51.172;6.808;2024-02-23T11:59:58;12.00;99.90
4293;DHT22;2160;51.172;6.808;2024-02-23T12:02:25;12.10;99.90
4293;DHT22;2160;51.172;6.808;2024-02-23T12:04:52;11.70;99.90
4293;DHT22;2160;51.172;6.808;2024-02-23T12:07:19;11.70;99.90
4293;DHT22;2160;51.172;6.808;2024-02-23T12:09:47;11.70;99.90
4293;DHT22;2160;51.172;6.808;2024-02-23T12:12:15;11.90;99.90
4293;DHT22;2160;51.172;6.808;2024-02-23T12:14:42;11.50;99.90
4293;DHT22;2160;51.172;6.808;2024-02-23T12:17:09;11.60;99.90
4293;DHT22;2160;51.172;6.808;2024-02-23T12:19:38;11.80;99.90
4293;DHT22;2160;51.172;6.808;2024-02-23T12:22:06;11.90;99.90
4293;DHT22;2160;51.172;6.808;2024-02-23T12:24:33;11.90;99.90
4293;DHT22;2160;51.172;6.808;2024-02-23T12:27:01;12.00;99.90
4293;DHT22;2160;51.172;6.808;2024-02-23T12:29:29;12.10;99.90
4293;DHT22;2160;51.172;6.808;2024-02-23T12:32:03;12.10;99.90
4293;DHT22;2160;51.172;6.808;2024-02-23T12:34:30;12.20;99.90
4293;DHT22;2160;51.172;6.808;2024-02-23T12:36:57;12.30;99.90
4293;DHT22;2160;51.172;6.808;2024-02-23T12:39:24;12.40;99.90
4293;DHT22;2160;51.172;6.808;2024-02-23T12:41:52;12.40;99.90
4293;DHT22;2160;51.172;6.808;2024-02-23T12:44:19;12.30;99.90
4293;DHT22;2160;51.172;6.808;2024-02-23T12:46:48;12.10;99.90
4293;DHT22;2160;51.172;6.808;2024-02-23T12:49:15;12.00;99.40
4293;DHT22;2160;51.172;6.808;2024-02-23T12:51:42;11.90;99.50
4293;DHT22;2160;51.172;6.808;2024-02-23T12:54:09;12.10;99.90
4293;DHT22;2160;51.172;6.808;2024-02-23T12:56:36;12.20;99.90
4293;DHT22;2160;51.172;6.808;2024-02-23T12:59:03;12.20;99.90
4293;DHT22;2160;51.172;6.808;2024-02-23T13:01:30;12.20;99.90
4293;DHT22;2160;51.172;6.808;2024-02-23T13:04:03;12.50;99.90
4293;DHT22;2160;51.172;6.808;2024-02-23T13:06:35;13.00;99.90
4293;DHT22;2160;51.172;6.808;2024-02-23T13:09:02;13.30;99.60
4293;DHT22;2160;51.172;6.808;2024-02-23T13:11:30;13.70;99.90
4293;DHT22;2160;51.172;6.808;2024-02-23T13:13:57;14.50;99.90
4293;DHT22;2160;51.172;6.808;2024-02-23T13:16:24;14.50;96.20
4293;DHT22;2160;51.172;6.808;2024-02-23T13:18:51;14.30;96.50
4293;DHT22;2160;51.172;6.808;2024-02-23T13:21:19;14.00;96.40
4293;DHT22;2160;51.172;6.808;2024-02-23T13:23:46;13.90;96.80
4293;DHT22;2160;51.172;6.808;2024-02-23T13:26:13;13.70;97.40
4293;DHT22;2160;51.172;6.808;2024-02-23T13:28:41;13.70;96.30
4293;DHT22;2160;51.172;6.808;2024-02-23T13:31:08;13.30;96.90
4293;DHT22;2160;51.172;6.808;2024-02-23T13:33:36;13.30;97.20
4293;DHT22;2160;51.172;6.808;2024-02-23T13:36:04;13.00;97.50
4293;DHT22;2160;51.172;6.808;2024-02-23T13:38:32;13.10;98.60
4293;DHT22;2160;51.172;6.808;2024-02-23T13:41:03;13.10;97.70
4293;DHT22;2160;51.172;6.808;2024-02-23T13:43:31;12.80;97.10
4293;DHT22;2160;51.172;6.808;2024-02-23T13:45:59;12.80;97.10
4293;DHT22;2160;51.172;6.808;2024-02-23T13:48:26;12.50;97.50
4293;DHT22;2160;51.172;6.808;2024-02-23T13:50:53;12.70;97.30
4293;DHT22;2160;51.172;6.808;2024-02-23T13:53:20;13.10;97.70
4293;DHT22;2160;51.172;6.808;2024-02-23T13:55:49;13.10;96.70
4293;DHT22;2160;51.172;6.808;2024-02-23T13:58:16;12.90;96.90
4293;DHT22;2160;51.172;6.808;2024-02-23T14:00:43;13.20;97.50
4293;DHT22;2160;51.172;6.808;2024-02-23T14:03:16;13.40;97.20
4293;DHT22;2160;51.172;6.808;2024-02-23T14:05:44;13.20;97.00
4293;DHT22;2160;51.172;6.808;2024-02-23T14:08:11;13.20;96.60
4293;DHT22;2160;51.172;6.808;2024-02-23T14:10:38;13.20;97.30
4293;DHT22;2160;51.172;6.808;2024-02-23T14:13:09;13.10;96.40
4293;DHT22;2160;51.172;6.808;2024-02-23T14:15:36;12.80;96.60
4293;DHT22;2160;51.172;6.808;2024-02-23T14:18:04;12.90;98.00
4293;DHT22;2160;51.172;6.808;2024-02-23T14:20:31;12.90;97.60
4293;DHT22;2160;51.172;6.808;2024-02-23T14:22:58;13.00;97.40
4293;DHT22;2160;51.172;6.808;2024-02-23T14:25:25;12.80;97.00
4293;DHT22;2160;51.172;6.808;2024-02-23T14:27:52;12.90;97.10
4293;DHT22;2160;51.172;6.808;2024-02-23T14:30:22;13.00;97.70
4293;DHT22;2160;51.172;6.808;2024-02-23T14:32:49;13.00;96.10
4293;DHT22;2160;51.172;6.808;2024-02-23T14:35:16;13.10;96.80
4293;DHT22;2160;51.172;6.808;2024-02-23T14:37:43;13.00;95.50
4293;DHT22;2160;51.172;6.808;2024-02-23T14:40:11;13.30;97.50
4293;DHT22;2160;51.172;6.808;2024-02-23T14:42:39;14.00;96.40
4293;DHT22;2160;51.172;6.808;2024-02-23T14:45:07;14.20;96.60
4293;DHT22;2160;51.172;6.808;2024-02-23T14:47:36;14.30;95.80
4293;DHT22;2160;51.172;6.808;2024-02-23T14:50:04;14.20;95.60
4293;DHT22;2160;51.172;6.808;2024-02-23T14:52:31;14.00;95.70
4293;DHT22;2160;51.172;6.808;2024-02-23T14:54:58;13.90;96.30
4293;DHT22;2160;51.172;6.808;2024-02-23T14:57:25;13.80;96.50
4293;DHT22;2160;51.172;6.808;2024-02-23T14:59:52;13.40;95.80
4293;DHT22;2160;51.172;6.808;2024-02-23T15:02:21;13.20;96.00
4293;DHT22;2160;51.172;6.808;2024-02-23T15:04:49;13.00;97.10
4293;DHT22;2160;51.172;6.808;2024-02-23T15:07:16;13.00;98.10
4293;DHT22;2160;51.172;6.808;2024-02-23T15:09:43;12.90;98.90
4293;DHT22;2160;51.172;6.808;2024-02-23T15:12:11;13.00;99.80
4293;DHT22;2160;51.172;6.808;2024-02-23T15:14:39;12.90;99.90
4293;DHT22;2160;51.172;6.808;2024-02-23T15:17:06;12.80;99.90
4293;DHT22;2160;51.172;6.808;2024-02-23T15:19:33;13.10;99.90
4293;DHT22;2160;51.172;6.808;2024-02-23T15:22:02;13.10;99.90
4293;DHT22;2160;51.172;6.808;2024-02-23T15:24:29;13.00;99.90
4293;DHT22;2160;51.172;6.808;2024-02-23T15:26:56;13.00;99.90
4293;DHT22;2160;51.172;6.808;2024-02-23T15:29:23;13.20;99.90
4293;DHT22;2160;51.172;6.808;2024-02-23T15:31:50;13.30;99.90
4293;DHT22;2160;51.172;6.808;2024-02-23T15:34:17;13.00;99.90
4293;DHT22;2160;51.172;6.808;2024-02-23T15:36:44;12.90;99.90
4293;DHT22;2160;51.172;6.808;2024-02-23T15:39:12;13.10;99.90
4293;DHT22;2160;51.172;6.808;2024-02-23T15:41:39;12.70;99.90
4293;DHT22;2160;51.172;6.808;2024-02-23T15:44:06;12.70;99.90
4293;DHT22;2160;51.172;6.808;2024-02-23T15:46:33;12.70;99.90
4293;DHT22;2160;51.172;6.808;2024-02-23T15:49:00;12.30;99.90
4293;DHT22;2160;51.172;6.808;2024-02-23T15:51:27;12.10;99.90
4293;DHT22;2160;51.172;6.808;2024-02-23T15:53:59;12.40;99.90
4293;DHT22;2160;51.172;6.808;2024-02-23T15:56:27;12.10;99.90
4293;DHT22;2160;51.172;6.808;2024-02-23T15:58:54;11.90;99.90
4293;DHT22;2160;51.172;6.808;2024-02-23T16:01:21;12.00;99.90
4293;DHT22;2160;51.172;6.808;2024-02-23T16:03:49;12.10;99.90
4293;DHT22;2160;51.172;6.808;2024-02-23T16:06:16;12.10;99.90
4293;DHT22;2160;51.172;6.808;2024-02-23T16:08:44;12.30;99.90
4293;DHT22;2160;51.172;6.808;2024-02-23T16:11:12;12.20;99.90
4293;DHT22;2160;51.172;6.808;2024-02-23T16:13:42;12.00;99.90
4293;DHT22;2160;51.172;6.808;2024-02-23T16:16:10;11.70;99.90
4293;DHT22;2160;51.172;6.808;2024-02-23T16:18:37;11.50;99.90
4293;DHT22;2160;51.172;6.808;2024-02-23T16:21:05;11.40;99.90
4293;DHT22;2160;51.172;6.808;2024-02-23T16:23:32;11.10;99.90
4293;DHT22;2160;51.172;6.808;2024-02-23T16:25:59;11.20;99.90
4293;DHT22;2160;51.172;6.808;2024-02-23T16:28:27;11.40;99.90
4293;DHT22;2160;51.172;6.808;2024-02-23T16:30:55;11.20;99.90
4293;DHT22;2160;51.172;6.808;2024-02-23T16:33:22;10.90;99.90
4293;DHT22;2160;51.172;6.808;2024-02-23T16:35:50;10.80;99.90
4293;DHT22;2160;51.172;6.808;2024-02-23T16:38:17;11.00;99.90
4293;DHT22;2160;51.172;6.808;2024-02-23T16:40:44;11.10;99.90
4293;DHT22;2160;51.172;6.808;2024-02-23T16:43:11;11.10;99.90
4293;DHT22;2160;51.172;6.808;2024-02-23T16:45:38;11.40;99.90
4293;DHT22;2160;51.172;6.808;2024-02-23T16:48:07;11.40;99.90
4293;DHT22;2160;51.172;6.808;2024-02-23T16:50:36;11.20;99.90
4293;DHT22;2160;51.172;6.808;2024-02-23T16:53:04;10.90;99.90
4293;DHT22;2160;51.172;6.808;2024-02-23T16:55:31;10.50;99.90
4293;DHT22;2160;51.172;6.808;2024-02-23T16:57:58;10.50;99.90
4293;DHT22;2160;51.172;6.808;2024-02-23T17:00:25;10.60;99.90
4293;DHT22;2160;51.172;6.808;2024-02-23T17:02:52;10.60;99.90
4293;DHT22;2160;51.172;6.808;2024-02-23T17:05:21;10.50;99.90
4293;DHT22;2160;51.172;6.808;2024-02-23T17:07:48;10.80;99.90
4293;DHT22;2160;51.172;6.808;2024-02-23T17:10:15;10.70;99.90
4293;DHT22;2160;51.172;6.808;2024-02-23T17:12:42;10.70;99.90
4293;DHT22;2160;51.172;6.808;2024-02-23T17:15:11;10.70;99.90
4293;DHT22;2160;51.172;6.808;2024-02-23T17:17:38;10.60;99.90
4293;DHT22;2160;51.172;6.808;2024-02-23T17:20:06;10.60;99.90
4293;DHT22;2160;51.172;6.808;2024-02-23T17:22:35;10.60;99.90
4293;DHT22;2160;51.172;6.808;2024-02-23T17:25:02;10.60;99.90
4293;DHT22;2160;51.172;6.808;2024-02-23T17:27:31;10.60;99.90
4293;DHT22;2160;51.172;6.808;2024-02-23T17:30:00;10.60;99.90
4293;DHT22;2160;51.172;6.808;2024-02-23T17:32:27;10.70;99.90
4293;DHT22;2160;51.172;6.808;2024-02-23T17:34:54;10.60;99.90
4293;DHT22;2160;51.172;6.808;2024-02-23T17:37:21;10.50;99.90
4293;DHT22;2160;51.172;6.808;2024-02-23T17:39:51;10.40;99.90
4293;DHT22;2160;51.172;6.808;2024-02-23T17:42:18;10.20;99.90
4293;DHT22;2160;51.172;6.808;2024-02-23T17:44:46;10.10;99.90
4293;DHT22;2160;51.172;6.808;2024-02-23T17:47:13;10.00;99.90
4293;DHT22;2160;51.172;6.808;2024-02-23T17:49:40;10.20;99.90
4293;DHT22;2160;51.172;6.808;2024-02-23T17:52:07;10.40;99.90
4293;DHT22;2160;51.172;6.808;2024-02-23T17:54:34;10.40;99.90
4293;DHT22;2160;51.172;6.808;2024-02-23T17:57:03;10.40;99.90
4293;DHT22;2160;51.172;6.808;2024-02-23T17:59:30;10.30;99.90
4293;DHT22;2160;51.172;6.808;2024-02-23T18:01:57;10.30;99.90
4293;DHT22;2160;51.172;6.808;2024-02-23T18:04:24;10.40;99.90
4293;DHT22;2160;51.172;6.808;2024-02-23T18:06:51;10.40;99.90
4293;DHT22;2160;51.172;6.808;2024-02-23T18:09:19;10.40;99.90
4293;DHT22;2160;51.172;6.808;2024-02-23T18:11:46;10.50;99.90
4293;DHT22;2160;51.172;6.808;2024-02-23T18:14:15;10.40;99.90
4293;DHT22;2160;51.172;6.808;2024-02-23T18:16:43;10.50;99.90
4293;DHT22;2160;51.172;6.808;2024-02-23T18:19:11;10.60;99.90
4293;DHT22;2160;51.172;6.808;2024-02-23T18:21:38;10.60;99.90
4293;DHT22;2160;51.172;6.808;2024-02-23T18:24:06;10.60;99.90
4293;DHT22;2160;51.172;6.808;2024-02-23T18:26:33;10.70;99.90
4293;DHT22;2160;51.172;6.808;2024-02-23T18:29:00;10.70;99.90
4293;DHT22;2160;51.172;6.808;2024-02-23T18:31:28;10.60;99.90
4293;DHT22;2160;51.172;6.808;2024-02-23T18:33:56;10.60;99.90
4293;DHT22;2160;51.172;6.808;2024-02-23T18:36:23;10.60;99.90
4293;DHT22;2160;51.172;6.808;2024-02-23T18:38:50;10.70;99.90
4293;DHT22;2160;51.172;6.808;2024-02-23T18:41:17;10.60;99.90
4293;DHT22;2160;51.172;6.808;2024-02-23T18:43:44;10.70;99.90
4293;DHT22;2160;51.172;6.808;2024-02-23T18:46:12;10.70;99.90
4293;DHT22;2160;51.172;6.808;2024-02-23T18:48:40;10.60;99.90
4293;DHT22;2160;51.172;6.808;2024-02-23T18:51:07;10.60;99.90
4293;DHT22;2160;51.172;6.808;2024-02-23T18:53:34;10.60;99.90
4293;DHT22;2160;51.172;6.808;2024-02-23T18:56:01;10.60;99.90
4293;DHT22;2160;51.172;6.808;2024-02-23T18:58:31;10.50;99.90
4293;DHT22;2160;51.172;6.808;2024-02-23T19:00:58;10.70;99.90
4293;DHT22;2160;51.172;6.808;2024-02-23T19:03:25;10.70;99.90
4293;DHT22;2160;51.172;6.808;2024-02-23T19:05:54;10.60;99.90
4293;DHT22;2160;51.172;6.808;2024-02-23T19:08:21;10.70;99.90
4293;DHT22;2160;51.172;6.808;2024-02-23T19:10:48;10.50;99.90
4293;DHT22;2160;51.172;6.808;2024-02-23T19:13:15;10.30;99.90
4293;DHT22;2160;51.172;6.808;2024-02-23T19:15:42;10.50;99.90
4293;DHT22;2160;51.172;6.808;2024-02-23T19:18:12;10.50;99.90
4293;DHT22;2160;51.172;6.808;2024-02-23T19:20:39;10.40;99.90
4293;DHT22;2160;51.172;6.808;2024-02-23T19:23:07;10.10;99.90
4293;DHT22;2160;51.172;6.808;2024-02-23T19:25:34;10.20;99.90
4293;DHT22;2160;51.172;6.808;2024-02-23T19:28:03;10.20;99.90
4293;DHT22;2160;51.172;6.808;2024-02-23T19:30:30;10.40;99.90
4293;DHT22;2160;51.172;6.808;2024-02-23T19:32:57;10.60;99.90
4293;DHT22;2160;51.172;6.808;2024-02-23T19:35:24;10.40;99.90
4293;DHT22;2160;51.172;6.808;2024-02-23T19:37:51;10.50;99.90
4293;DHT22;2160;51.172;6.808;2024-02-23T19:40:19;10.80;99.90
4293;DHT22;2160;51.172;6.808;2024-02-23T19:42:49;10.50;99.90
4293;DHT22;2160;51.172;6.808;2024-02-23T19:45:16;10.60;99.90
4293;DHT22;2160;51.172;6.808;2024-02-23T19:47:43;10.50;99.90
4293;DHT22;2160;51.172;6.808;2024-02-23T19:50:11;10.40;99.90
4293;DHT22;2160;51.172;6.808;2024-02-23T19:52:38;10.50;99.90
4293;DHT22;2160;51.172;6.808;2024-02-23T19:55:06;10.40;99.90
4293;DHT22;2160;51.172;6.808;2024-02-23T19:57:34;10.50;99.90
4293;DHT22;2160;51.172;6.808;2024-02-23T20:00:01;10.60;99.90
4293;DHT22;2160;51.172;6.808;2024-02-23T20:02:30;10.60;99.90
4293;DHT22;2160;51.172;6.808;2024-02-23T20:04:57;10.40;99.90
4293;DHT22;2160;51.172;6.808;2024-02-23T20:07:24;10.50;99.90
4293;DHT22;2160;51.172;6.808;2024-02-23T20:09:51;10.30;99.90
4293;DHT22;2160;51.172;6.808;2024-02-23T20:12:18;10.40;99.90
4293;DHT22;2160;51.172;6.808;2024-02-23T20:14:47;10.40;99.90
4293;DHT22;2160;51.172;6.808;2024-02-23T20:17:15;10.40;99.90
4293;DHT22;2160;51.172;6.808;2024-02-23T20:19:42;10.40;99.90
4293;DHT22;2160;51.172;6.808;2024-02-23T20:22:09;10.30;99.90
4293;DHT22;2160;51.172;6.808;2024-02-23T20:24:39;10.30;99.90
4293;DHT22;2160;51.172;6.808;2024-02-23T20:27:07;10.60;99.90
4293;DHT22;2160;51.172;6.808;2024-02-23T20:29:34;10.50;99.90
4293;DHT22;2160;51.172;6.808;2024-02-23T20:32:03;10.40;99.90
4293;DHT22;2160;51.172;6.808;2024-02-23T20:34:31;10.30;99.90
4293;DHT22;2160;51.172;6.808;2024-02-23T20:36:59;10.40;99.90
4293;DHT22;2160;51.172;6.808;2024-02-23T20:39:26;10.40;99.90
4293;DHT22;2160;51.172;6.808;2024-02-23T20:41:53;10.40;99.90
4293;DHT22;2160;51.172;6.808;2024-02-23T20:44:20;10.40;99.90
4293;DHT22;2160;51.172;6.808;2024-02-23T20:46:47;10.40;99.90
4293;DHT22;2160;51.172;6.808;2024-02-23T20:49:15;10.30;99.90
4293;DHT22;2160;51.172;6.808;2024-02-23T20:51:42;10.50;99.90
4293;DHT22;2160;51.172;6.808;2024-02-23T20:54:14;10.70;99.90
4293;DHT22;2160;51.172;6.808;2024-02-23T20:56:42;10.30;99.90
4293;DHT22;2160;51.172;6.808;2024-02-23T20:59:08;10.20;99.90
4293;DHT22;2160;51.172;6.808;2024-02-23T21:01:36;10.20;99.90
4293;DHT22;2160;51.172;6.808;2024-02-23T21:04:03;10.50;99.90
4293;DHT22;2160;51.172;6.808;2024-02-23T21:06:32;10.40;99.90
4293;DHT22;2160;51.172;6.808;2024-02-23T21:08:59;10.50;99.90